Time;durP1;ratioP1;P1;durP2;ratioP2;P2;SDS_P1;SDS_P2;PMS_P1;PMS_P2;Temp;Humidity;BMP_temperature;BMP_pressure;BME280_temperature;BME280_humidity;BME280_pressure;Samples;Min_cycle;Max_cycle;Signal;HPM_P1;HPM_P2
2022/08/31 00:04:01;;;;;;;9.03;4.70;;;;;;;26.87;51.05;98736.25;6127509;23;20179;-88
2022/08/31 00:06:32;;;;;;;8.53;4.97;;;;;;;26.93;51.24;98731.97;6101543;23;20156;-87
2022/08/31 00:08:59;;;;;;;9.83;4.57;;;;;;;26.87;51.13;98732.72;6127702;23;20175;-88
2022/08/31 00:11:29;;;;;;;13.50;4.97;;;;;;;26.78;51.58;98724.00;6126985;23;20178;-87
2022/08/31 00:14:00;;;;;;;10.77;5.10;;;;;;;26.76;51.63;98723.28;6127273;23;20591;-88
2022/08/31 00:16:29;;;;;;;7.17;4.70;;;;;;;26.74;51.63;98730.72;6126801;23;20170;-88
2022/08/31 00:18:54;;;;;;;11.90;5.50;;;;;;;26.78;51.61;98732.06;6127523;23;20155;-87
2022/08/31 00:21:23;;;;;;;12.30;7.30;;;;;;;26.84;51.82;98731.25;6126937;23;20152;-87
2022/08/31 00:23:49;;;;;;;11.30;4.90;;;;;;;26.82;52.11;98728.78;6101241;23;20191;-87
2022/08/31 00:26:15;;;;;;;11.50;5.50;;;;;;;26.79;52.01;98725.63;6126859;23;20159;-88
2022/08/31 00:28:41;;;;;;;9.23;5.97;;;;;;;26.82;51.64;98727.94;6126763;23;20187;-88
2022/08/31 00:31:07;;;;;;;11.27;5.10;;;;;;;26.87;51.40;98725.50;6127179;23;20152;-87
2022/08/31 00:33:34;;;;;;;9.20;4.67;;;;;;;26.87;51.40;98730.88;6127075;23;20151;-88
2022/08/31 00:36:00;;;;;;;9.40;4.83;;;;;;;26.94;51.21;98731.75;6126773;23;20148;-88
2022/08/31 00:38:26;;;;;;;12.03;4.83;;;;;;;26.99;50.86;98729.31;6127306;23;20159;-88
2022/08/31 00:40:51;;;;;;;12.30;4.97;;;;;;;26.94;50.52;98726.38;6101055;23;20159;-87
2022/08/31 00:43:35;;;;;;;18.27;5.23;;;;;;;26.97;50.32;98730.53;6126749;23;20151;-88
2022/08/31 00:46:01;;;;;;;10.43;4.65;;;;;;;26.93;50.06;98731.97;6126676;23;20218;-86
2022/08/31 00:48:27;;;;;;;7.67;5.00;;;;;;;26.86;50.16;98737.28;6126583;23;20152;-87
2022/08/31 00:50:52;;;;;;;10.73;4.70;;;;;;;26.90;49.63;98730.50;6126967;23;20159;-87
2022/08/31 00:53:18;;;;;;;7.70;4.50;;;;;;;26.94;49.41;98734.44;6126732;23;20213;-88
2022/08/31 00:55:44;;;;;;;7.73;4.53;;;;;;;26.90;49.15;98733.19;6126594;23;20493;-87
2022/08/31 00:58:11;;;;;;;7.40;4.40;;;;;;;26.92;48.87;98731.13;6126931;23;20163;-88
2022/08/31 01:00:39;;;;;;;10.00;5.10;;;;;;;26.95;48.85;98732.59;6126575;23;20144;-88
2022/08/31 01:03:06;;;;;;;7.53;4.80;;;;;;;26.91;48.53;98734.03;6101396;23;20226;-87
2022/08/31 01:05:33;;;;;;;9.40;4.63;;;;;;;26.94;48.40;98723.69;6126507;23;20148;-88
2022/08/31 01:08:00;;;;;;;12.77;5.17;;;;;;;26.98;48.25;98730.34;6126479;23;20287;-88
2022/08/31 01:10:30;;;;;;;9.77;5.00;;;;;;;26.93;47.98;98730.13;6126415;23;20183;-87
2022/08/31 01:12:57;;;;;;;10.90;4.57;;;;;;;26.98;48.41;98727.66;6127187;23;20183;-87
2022/08/31 01:15:24;;;;;;;9.17;4.57;;;;;;;27.01;47.81;98721.91;6126410;23;20216;-87
2022/08/31 01:17:53;;;;;;;9.30;4.32;;;;;;;26.98;48.13;98727.66;6126758;23;20465;-88
2022/08/31 01:20:33;;;;;;;10.73;4.37;;;;;;;26.99;48.16;98721.25;6101150;23;20182;-88
2022/08/31 01:23:11;;;;;;;11.80;4.50;;;;;;;27.02;47.78;98722.75;6101212;23;20147;-87
2022/08/31 01:25:41;;;;;;;8.60;4.73;;;;;;;27.01;47.60;98710.31;6126787;23;20544;-87
2022/08/31 01:28:08;;;;;;;11.03;4.53;;;;;;;27.01;47.93;98715.69;6126330;23;20186;-87
2022/08/31 01:30:34;;;;;;;10.27;4.60;;;;;;;26.99;47.87;98715.88;6126893;23;20184;-88
2022/08/31 01:33:00;;;;;;;8.50;4.43;;;;;;;26.95;48.04;98708.38;6100768;23;20294;-87
2022/08/31 01:35:27;;;;;;;9.10;4.40;;;;;;;26.97;47.85;98704.47;6126334;23;20159;-87
2022/08/31 01:37:53;;;;;;;13.43;5.40;;;;;;;26.95;48.01;98711.91;6126954;23;20166;-87
2022/08/31 01:40:19;;;;;;;8.37;4.00;;;;;;;26.91;48.20;98715.19;6126304;23;20582;-87
2022/08/31 01:42:45;;;;;;;6.53;4.10;;;;;;;26.86;48.65;98713.06;6100695;23;20222;-87
2022/08/31 01:45:11;;;;;;;6.63;4.43;;;;;;;26.83;48.58;98713.47;6126248;23;20148;-87
2022/08/31 01:47:38;;;;;;;8.83;4.77;;;;;;;26.78;48.69;98711.34;6102118;23;20163;-88
2022/08/31 01:50:05;;;;;;;8.27;4.50;;;;;;;26.73;49.10;98707.53;6126194;23;20210;-88
2022/08/31 01:52:32;;;;;;;8.57;5.17;;;;;;;26.61;49.44;98706.41;6128512;23;20147;-87
2022/08/31 01:54:59;;;;;;;6.33;4.10;;;;;;;26.49;50.08;98708.78;6102669;23;20175;-88
2022/08/31 01:57:25;;;;;;;7.73;4.87;;;;;;;26.41;50.69;98702.69;6128976;23;20620;-88
2022/08/31 01:59:51;;;;;;;7.03;4.27;;;;;;;26.36;50.84;98708.66;6128250;23;20171;-87
2022/08/31 02:02:16;;;;;;;6.80;3.90;;;;;;;26.20;50.80;98707.03;6128565;23;20186;-88
2022/08/31 02:04:42;;;;;;;8.90;4.73;;;;;;;26.16;51.25;98711.13;6128158;23;20152;-87
2022/08/31 02:07:07;;;;;;;10.30;5.00;;;;;;;26.16;51.12;98705.75;6128167;23;20147;-87
2022/08/31 02:09:33;;;;;;;7.27;4.00;;;;;;;26.15;51.02;98703.25;6128391;23;20255;-88
2022/08/31 02:11:58;;;;;;;7.03;3.57;;;;;;;26.11;50.92;98708.13;6128176;23;20152;-88
2022/08/31 02:14:24;;;;;;;7.83;4.67;;;;;;;26.09;50.40;98710.19;6128444;23;20218;-88
2022/08/31 02:16:49;;;;;;;11.07;4.60;;;;;;;26.11;50.09;98713.50;6128045;23;20148;-88
2022/08/31 02:19:15;;;;;;;7.67;4.80;;;;;;;26.07;49.97;98711.41;6128039;23;20569;-87
2022/08/31 02:21:40;;;;;;;6.97;4.00;;;;;;;26.11;49.76;98718.03;6127998;23;20247;-87
2022/08/31 02:24:07;;;;;;;5.73;4.13;;;;;;;26.17;49.65;98722.72;6128006;23;20158;-87
2022/08/31 02:26:33;;;;;;;8.87;3.67;;;;;;;26.13;49.55;98719.56;6128085;23;20182;-87
2022/08/31 02:28:59;;;;;;;16.00;4.53;;;;;;;25.98;49.91;98713.34;6127845;23;20495;-87
2022/08/31 02:31:25;;;;;;;10.43;4.80;;;;;;;26.04;50.01;98715.31;6102450;23;20167;-88
2022/08/31 02:33:51;;;;;;;8.73;4.17;;;;;;;26.00;50.42;98719.38;6127928;23;20223;-87
2022/08/31 02:36:16;;;;;;;8.40;4.90;;;;;;;25.98;49.96;98715.22;6128261;23;20151;-88
2022/08/31 02:38:42;;;;;;;8.03;4.73;;;;;;;25.93;50.24;98714.94;6102351;23;20580;-87
2022/08/31 02:41:07;;;;;;;8.53;4.77;;;;;;;25.80;50.60;98720.97;6128533;23;20214;-87
2022/08/31 02:43:33;;;;;;;12.57;4.90;;;;;;;25.87;50.41;98711.16;6102653;23;20164;-87
2022/08/31 02:45:59;;;;;;;7.63;5.07;;;;;;;25.80;50.33;98718.28;6127797;23;20183;-87
2022/08/31 02:48:24;;;;;;;9.50;4.67;;;;;;;25.95;50.04;98716.41;6128008;23;20470;-87
2022/08/31 02:50:51;;;;;;;12.33;5.00;;;;;;;25.90;49.98;98716.16;6102182;23;20195;-88
2022/08/31 02:53:20;;;;;;;7.33;3.73;;;;;;;25.87;50.01;98716.53;6127847;23;20206;-87
2022/08/31 02:55:46;;;;;;;11.47;4.93;;;;;;;25.91;49.87;98715.13;6127691;23;20183;-88
2022/08/31 02:58:12;;;;;;;9.73;4.63;;;;;;;25.93;49.91;98715.78;6128015;23;20218;-87
2022/08/31 03:00:43;;;;;;;12.07;4.50;;;;;;;25.95;50.21;98719.09;6127956;23;20515;-87
2022/08/31 03:03:08;;;;;;;9.77;4.97;;;;;;;26.10;49.58;98714.53;6128023;23;20238;-87
2022/08/31 03:05:34;;;;;;;9.80;4.97;;;;;;;25.91;50.29;98723.19;6128268;23;20191;-89
2022/08/31 03:07:59;;;;;;;8.23;5.53;;;;;;;25.99;49.90;98720.41;6127894;23;20148;-89
2022/08/31 03:10:25;;;;;;;8.20;4.57;;;;;;;26.03;49.91;98721.69;6101951;23;20222;-87
2022/08/31 03:12:51;;;;;;;9.90;5.27;;;;;;;25.89;50.39;98724.41;6127960;23;20182;-88
2022/08/31 03:15:19;;;;;;;8.43;4.93;;;;;;;25.92;50.39;98724.84;6128190;23;20179;-88
2022/08/31 03:17:45;;;;;;;9.37;4.87;;;;;;;26.00;50.07;98718.53;6127874;23;20152;-88
2022/08/31 03:20:12;;;;;;;7.73;4.90;;;;;;;26.05;49.85;98716.94;6101956;23;20214;-88
2022/08/31 03:22:38;;;;;;;9.17;5.70;;;;;;;26.06;49.64;98721.31;6127514;23;20175;-88
2022/08/31 03:25:05;;;;;;;11.63;6.37;;;;;;;26.07;49.62;98714.91;6127486;23;20564;-89
2022/08/31 03:27:31;;;;;;;10.83;5.53;;;;;;;26.10;49.17;98727.94;6127442;23;20210;-87
2022/08/31 03:29:57;;;;;;;9.13;5.53;;;;;;;25.98;49.63;98724.09;6127713;23;20183;-89
2022/08/31 03:32:26;;;;;;;9.07;4.97;;;;;;;25.83;50.59;98723.31;6101858;23;20164;-88
2022/08/31 03:34:54;;;;;;;14.33;5.73;;;;;;;25.83;50.39;98730.53;6128063;23;20148;-88
2022/08/31 03:37:20;;;;;;;9.00;4.97;;;;;;;25.80;50.51;98734.41;6101800;23;20494;-88
2022/08/31 03:39:46;;;;;;;12.90;6.47;;;;;;;25.84;50.43;98733.00;6101772;23;20160;-87
2022/08/31 03:42:12;;;;;;;11.63;5.93;;;;;;;25.81;50.77;98736.09;6101612;23;20576;-88
2022/08/31 03:44:37;;;;;;;10.23;5.33;;;;;;;25.89;50.44;98732.47;6101637;23;20166;-88
2022/08/31 03:47:03;;;;;;;8.67;5.13;;;;;;;25.94;50.05;98740.78;6127275;23;20151;-88
2022/08/31 03:49:29;;;;;;;10.63;6.00;;;;;;;25.94;50.45;98744.28;6127904;23;20180;-88
2022/08/31 03:51:54;;;;;;;12.67;5.93;;;;;;;25.90;50.28;98737.63;6127164;23;20147;-88
2022/08/31 03:54:20;;;;;;;9.43;5.13;;;;;;;26.03;50.06;98742.34;6127290;23;20164;-87
2022/08/31 03:56:45;;;;;;;10.83;5.33;;;;;;;26.02;49.96;98741.50;6127147;23;20198;-88
2022/08/31 03:59:12;;;;;;;9.30;5.37;;;;;;;25.90;50.54;98740.31;6127838;23;20148;-88
2022/08/31 04:01:38;;;;;;;10.50;5.50;;;;;;;25.91;50.58;98742.00;6127133;23;20223;-87
2022/08/31 04:04:04;;;;;;;11.43;5.13;;;;;;;25.90;50.68;98747.53;6127098;23;20223;-88
2022/08/31 04:06:29;;;;;;;9.57;4.37;;;;;;;25.97;50.29;98749.28;6127067;23;20572;-88
2022/08/31 04:08:55;;;;;;;11.63;5.67;;;;;;;26.08;49.85;98748.81;6126928;23;20527;-87
2022/08/31 04:11:21;;;;;;;8.83;5.60;;;;;;;26.14;49.75;98750.78;6127323;23;20207;-87
2022/08/31 04:13:47;;;;;;;10.33;5.50;;;;;;;26.16;49.81;98758.63;6126652;23;20172;-87
2022/08/31 04:16:19;;;;;;;10.20;5.30;;;;;;;26.20;49.90;98752.69;6127618;23;20446;-88
2022/08/31 04:18:46;;;;;;;12.10;5.63;;;;;;;26.26;49.99;98758.38;6127277;23;20132;-87
2022/08/31 04:21:19;;;;;;;14.10;5.83;;;;;;;26.20;49.80;98760.75;6126926;23;20218;-89
2022/08/31 04:23:46;;;;;;;7.63;4.80;;;;;;;26.22;50.05;98769.50;6126939;23;20136;-88
2022/08/31 04:26:21;;;;;;;9.07;5.53;;;;;;;26.26;49.91;98769.13;6126895;23;20163;-87
2022/08/31 04:28:48;;;;;;;10.60;5.43;;;;;;;26.34;50.07;98766.28;6127068;23;20231;-87
2022/08/31 04:31:14;;;;;;;10.47;5.17;;;;;;;26.34;50.45;98767.13;6101275;23;20160;-87
2022/08/31 04:33:41;;;;;;;10.10;5.13;;;;;;;26.32;50.51;98774.53;6127126;23;20153;-88
2022/08/31 04:36:13;;;;;;;8.93;5.97;;;;;;;26.40;50.17;98776.28;6126743;23;20148;-88
2022/08/31 04:38:44;;;;;;;10.93;5.87;;;;;;;26.39;50.65;98778.13;6101122;23;20151;-88
2022/08/31 04:41:12;;;;;;;10.90;6.07;;;;;;;26.38;50.49;98783.72;6127092;23;20144;-87
2022/08/31 04:43:41;;;;;;;10.37;5.77;;;;;;;26.39;51.13;98785.38;6126717;23;20179;-87
2022/08/31 04:46:07;;;;;;;12.73;6.47;;;;;;;26.30;51.72;98781.97;6126994;23;20159;-87
2022/08/31 04:48:34;;;;;;;11.73;5.23;;;;;;;26.41;50.92;98783.34;6126840;23;20156;-87
2022/08/31 04:51:04;;;;;;;9.47;5.50;;;;;;;26.47;50.79;98787.94;6126640;23;20579;-88
2022/08/31 04:53:30;;;;;;;12.27;6.87;;;;;;;26.49;51.08;98791.28;6126488;23;20226;-89
2022/08/31 04:55:55;;;;;;;9.40;5.67;;;;;;;26.41;51.50;98788.72;6126689;23;20529;-88
2022/08/31 04:58:22;;;;;;;12.03;5.80;;;;;;;26.38;52.22;98789.09;6101050;23;20170;-88
2022/08/31 05:00:51;;;;;;;9.30;5.87;;;;;;;26.41;51.56;98784.19;6126653;23;20548;-88
2022/08/31 05:03:18;;;;;;;11.53;5.97;;;;;;;26.50;51.75;98787.56;6126583;23;20148;-88
2022/08/31 05:05:49;;;;;;;12.43;5.50;;;;;;;26.53;51.64;98785.34;6126546;23;20151;-89
2022/08/31 05:08:15;;;;;;;9.20;6.07;;;;;;;26.32;52.93;98774.53;6100903;23;20247;-88
2022/08/31 05:10:41;;;;;;;9.23;5.97;;;;;;;26.10;53.83;98756.69;6126950;23;20638;-88
2022/08/31 05:13:07;;;;;;;12.47;5.93;;;;;;;26.18;53.91;98768.19;6126871;23;20148;-88
2022/08/31 05:15:32;;;;;;;12.33;6.27;;;;;;;26.14;53.97;98761.53;6126873;23;20184;-88
2022/08/31 05:17:59;;;;;;;8.23;5.73;;;;;;;26.19;53.72;98763.66;6126525;23;20576;-89
2022/08/31 05:20:25;;;;;;;11.80;5.87;;;;;;;26.11;54.51;98761.03;6126561;23;20206;-89
2022/08/31 05:22:51;;;;;;;12.60;5.70;;;;;;;26.22;54.11;98758.75;6126438;23;20147;-88
2022/08/31 05:25:16;;;;;;;14.53;5.83;;;;;;;26.18;53.48;98765.50;6126458;23;20222;-88
2022/08/31 05:27:42;;;;;;;13.97;6.07;;;;;;;26.37;53.57;98761.38;6127018;23;20243;-88
2022/08/31 05:30:08;;;;;;;10.57;5.70;;;;;;;26.52;53.17;98761.34;6100755;23;20203;-88
2022/08/31 05:32:33;;;;;;;9.83;5.33;;;;;;;26.58;53.31;98761.41;6100714;23;20171;-88
2022/08/31 05:34:59;;;;;;;8.50;5.37;;;;;;;26.69;52.37;98760.91;6100868;23;20160;-89
2022/08/31 05:37:25;;;;;;;8.77;5.60;;;;;;;26.76;52.41;98761.78;6100860;23;20543;-88
2022/08/31 05:39:50;;;;;;;9.87;5.60;;;;;;;26.83;52.76;98762.69;6126345;23;20178;-88
2022/08/31 05:42:16;;;;;;;9.00;5.43;;;;;;;26.60;52.90;98759.34;6126314;23;20147;-89
2022/08/31 05:44:41;;;;;;;8.57;5.33;;;;;;;26.76;53.13;98755.56;6126378;23;20151;-88
2022/08/31 05:47:07;;;;;;;9.10;5.43;;;;;;;26.70;52.90;98756.34;6100806;23;20484;-89
2022/08/31 05:49:34;;;;;;;9.53;5.60;;;;;;;26.95;52.25;98763.03;6126509;23;20184;-88
2022/08/31 05:52:00;;;;;;;10.60;5.33;;;;;;;26.90;51.90;98757.41;6126299;23;20602;-89
2022/08/31 05:54:26;;;;;;;11.00;5.23;;;;;;;26.95;51.78;98757.66;6126160;23;20286;-88
2022/08/31 05:56:52;;;;;;;10.75;5.68;;;;;;;27.24;51.24;98754.78;6126275;23;20189;-89
2022/08/31 05:59:18;;;;;;;10.90;5.72;;;;;;;27.37;50.90;98762.13;6100691;23;20470;-87
2022/08/31 06:01:44;;;;;;;7.32;5.25;;;;;;;27.49;50.07;98762.44;6126561;23;20591;-89
2022/08/31 06:04:10;;;;;;;8.75;5.30;;;;;;;27.69;49.67;98756.16;6126560;23;20147;-89
2022/08/31 06:06:37;;;;;;;10.60;4.70;;;;;;;27.73;48.63;98756.56;6126542;23;20148;-88
2022/08/31 06:09:04;;;;;;;12.93;6.35;;;;;;;27.82;48.90;98758.94;6126124;23;20180;-88
2022/08/31 06:11:33;;;;;;;9.85;5.25;;;;;;;28.01;48.75;98758.19;6100725;23;20168;-88
2022/08/31 06:14:00;;;;;;;8.50;4.88;;;;;;;28.11;47.21;98757.84;6126198;23;20152;-89
2022/08/31 06:16:27;;;;;;;7.72;4.40;;;;;;;27.98;47.76;98755.06;6126529;23;20184;-89
2022/08/31 06:18:54;;;;;;;7.07;4.30;;;;;;;28.07;47.57;98759.25;6100748;23;20166;-88
2022/08/31 06:21:29;;;;;;;8.20;4.28;;;;;;;28.13;46.48;98754.94;6126883;23;20211;-89
2022/08/31 06:23:56;;;;;;;7.82;4.55;;;;;;;28.20;46.57;98758.50;6100717;23;20286;-88
2022/08/31 06:26:24;;;;;;;7.90;4.20;;;;;;;28.39;46.43;98752.31;6126456;23;20148;-87
2022/08/31 06:28:52;;;;;;;7.68;4.40;;;;;;;28.52;46.15;98758.59;6126345;23;20179;-88
2022/08/31 06:31:24;;;;;;;8.85;5.07;;;;;;;28.81;45.76;98756.59;6126102;23;20591;-88
2022/08/31 06:33:51;;;;;;;9.50;4.40;;;;;;;29.13;45.61;98758.50;6126164;23;20136;-88
2022/08/31 06:36:19;;;;;;;7.13;4.43;;;;;;;29.48;43.79;98751.03;6126135;23;20218;-89
2022/08/31 06:38:45;;;;;;;9.20;4.80;;;;;;;29.32;42.94;98757.69;6127710;23;20176;-90
2022/08/31 06:41:23;;;;;;;8.82;4.18;;;;;;;29.19;42.93;98752.28;6102443;23;20194;-88
2022/08/31 06:43:49;;;;;;;9.50;4.25;;;;;;;29.25;42.55;98754.16;6128206;23;20557;-89
2022/08/31 06:46:16;;;;;;;9.27;4.47;;;;;;;29.28;42.47;98747.50;6127929;23;20152;-90
2022/08/31 06:48:42;;;;;;;7.75;4.05;;;;;;;29.50;42.16;98751.63;6128248;23;20151;-88
2022/08/31 06:51:08;;;;;;;10.57;4.25;;;;;;;29.70;41.62;98755.94;6102268;23;20165;-90
2022/08/31 06:53:35;;;;;;;7.60;3.67;;;;;;;30.03;41.66;98745.06;6127636;23;20239;-88
2022/08/31 06:56:09;;;;;;;6.35;3.60;;;;;;;30.33;40.91;98756.16;6128104;23;20176;-89
2022/08/31 06:58:35;;;;;;;10.52;4.35;;;;;;;30.30;40.05;98756.59;6128444;23;20189;-88
2022/08/31 07:01:06;;;;;;;7.57;4.20;;;;;;;30.51;39.62;98750.88;6127824;23;20638;-89
2022/08/31 07:03:37;;;;;;;5.50;3.60;;;;;;;30.36;40.14;98762.00;6127893;23;20579;-88
2022/08/31 07:06:16;;;;;;;8.15;4.53;;;;;;;30.49;40.21;98760.25;6127870;23;20136;-90
2022/08/31 07:08:43;;;;;;;7.20;4.22;;;;;;;30.67;39.80;98753.06;6128338;23;20203;-89
2022/08/31 07:11:22;;;;;;;6.82;3.95;;;;;;;30.75;39.78;98750.09;6128435;23;20210;-91
2022/08/31 07:13:50;;;;;;;12.43;4.32;;;;;;;30.63;39.41;98751.03;6103183;23;20475;-89
2022/08/31 07:16:17;;;;;;;8.68;4.22;;;;;;;30.86;39.11;98757.53;6127624;23;20152;-90
2022/08/31 07:18:43;;;;;;;7.13;4.07;;;;;;;31.05;39.03;98747.63;6102048;23;20160;-88
2022/08/31 07:21:14;;;;;;;5.97;3.75;;;;;;;31.15;38.15;98749.84;6127847;23;20162;-91
2022/08/31 07:23:40;;;;;;;12.48;4.32;;;;;;;31.16;38.70;98751.50;6127985;23;20151;-89
2022/08/31 07:26:08;;;;;;;6.32;3.97;;;;;;;31.22;39.02;98756.84;6127525;23;20152;-88
2022/08/31 07:28:34;;;;;;;7.97;3.47;;;;;;;31.15;38.07;98756.09;6127379;23;20155;-89
2022/08/31 07:31:04;;;;;;;6.90;3.47;;;;;;;31.17;38.53;98758.56;6127571;23;20151;-89
2022/08/31 07:33:36;;;;;;;8.60;4.47;;;;;;;31.23;39.33;98749.56;6127760;23;20222;-89
2022/08/31 07:36:06;;;;;;;7.05;3.20;;;;;;;31.35;37.92;98753.19;6127838;23;20147;-88
2022/08/31 07:44:01;;;;;;;8.27;3.22;;;;;;;31.69;37.95;98736.41;6127399;23;20194;-88
2022/08/31 07:46:30;;;;;;;4.63;2.97;;;;;;;31.82;37.38;98741.69;6101838;23;20247;-89
2022/08/31 07:48:57;;;;;;;9.68;4.00;;;;;;;32.07;37.87;98734.34;6126625;23;20207;-88
2022/08/31 07:51:24;;;;;;;7.30;3.38;;;;;;;32.15;37.53;98733.19;6128052;23;20297;-90
2022/08/31 07:53:51;;;;;;;7.07;3.85;;;;;;;32.18;38.09;98736.25;6127447;23;20246;-88
2022/08/31 07:56:17;;;;;;;6.47;3.55;;;;;;;32.53;37.58;98730.19;6101593;23;20164;-88
2022/08/31 07:58:42;;;;;;;9.30;3.95;;;;;;;32.89;36.95;98730.03;6127603;23;20222;-88
2022/08/31 08:01:08;;;;;;;8.00;3.28;;;;;;;33.07;36.95;98740.03;6127139;23;20182;-88
2022/08/31 08:03:34;;;;;;;10.07;4.18;;;;;;;33.41;36.05;98739.25;6127172;23;20148;-88
2022/08/31 08:05:59;;;;;;;6.78;3.50;;;;;;;33.62;34.96;98737.84;6127085;23;20152;-89
2022/08/31 08:08:25;;;;;;;8.05;3.65;;;;;;;33.80;36.07;98732.25;6127454;23;20152;-89
2022/08/31 08:10:50;;;;;;;7.20;3.00;;;;;;;33.92;34.09;98722.16;6127359;23;20205;-90
2022/08/31 08:13:17;;;;;;;7.50;3.05;;;;;;;33.98;34.79;98726.66;6127758;23;20148;-90
2022/08/31 08:15:43;;;;;;;5.28;3.05;;;;;;;33.96;34.25;98724.16;6127026;23;20485;-89
2022/08/31 08:18:11;;;;;;;7.22;2.97;;;;;;;34.18;34.15;98724.38;6126988;23;20148;-89
2022/08/31 08:20:36;;;;;;;9.13;3.00;;;;;;;34.28;34.95;98723.72;6101662;23;20156;-89
2022/08/31 08:23:05;;;;;;;6.78;3.15;;;;;;;34.41;34.60;98728.88;6126970;23;20453;-89
2022/08/31 08:25:33;;;;;;;6.05;3.60;;;;;;;34.45;33.98;98725.44;6127083;23;20176;-88
2022/08/31 08:27:59;;;;;;;6.45;3.00;;;;;;;34.72;33.51;98725.69;6126887;23;20520;-89
2022/08/31 08:30:28;;;;;;;6.53;3.05;;;;;;;34.75;33.39;98721.66;6101080;23;20200;-90
2022/08/31 08:32:54;;;;;;;6.22;3.63;;;;;;;34.68;33.79;98726.41;6127525;23;20222;-89
2022/08/31 08:35:20;;;;;;;5.00;3.35;;;;;;;34.67;32.61;98720.13;6127857;23;20186;-88
2022/08/31 08:37:47;;;;;;;9.90;3.50;;;;;;;34.78;34.01;98713.81;6101173;23;20227;-88
2022/08/31 08:40:40;;;;;;;4.93;3.38;;;;;;;34.89;33.26;98712.09;6126551;23;20158;-88
2022/08/31 08:43:06;;;;;;;8.45;3.40;;;;;;;34.88;33.37;98715.91;6126524;23;20132;-88
2022/08/31 08:45:32;;;;;;;4.38;2.63;;;;;;;35.24;32.71;98704.53;6126440;23;20163;-87
2022/08/31 08:47:58;;;;;;;5.65;3.03;;;;;;;35.44;32.52;98696.63;6126591;23;20226;-88
2022/08/31 08:50:27;;;;;;;8.25;3.05;;;;;;;35.47;32.21;98698.84;6126436;23;20179;-89
2022/08/31 08:52:55;;;;;;;10.13;3.08;;;;;;;35.57;31.35;98685.41;6126530;23;20155;-88
2022/08/31 08:55:29;;;;;;;4.72;2.75;;;;;;;35.53;32.52;98686.13;6126586;23;20156;-88
2022/08/31 08:57:55;;;;;;;5.18;3.42;;;;;;;35.41;31.47;98688.94;6126498;23;20143;-88
2022/08/31 09:00:27;;;;;;;8.35;3.10;;;;;;;35.34;32.36;98684.75;6126331;23;20244;-88
2022/08/31 09:02:59;;;;;;;4.57;2.78;;;;;;;35.60;32.16;98678.59;6101069;23;20148;-88
2022/08/31 09:05:44;;;;;;;8.88;3.05;;;;;;;36.00;31.33;98681.03;6127018;23;20158;-88
2022/08/31 09:08:49;;;;;;;5.38;2.88;;;;;;;36.08;32.28;98677.88;6100956;23;20289;-89
2022/08/31 09:11:45;;;;;;;6.15;2.80;;;;;;;36.26;31.33;98672.06;6100955;23;20160;-89
2022/08/31 09:14:18;;;;;;;6.85;2.85;;;;;;;36.24;31.47;98668.78;6127301;23;20156;-88
2022/08/31 09:17:23;;;;;;;8.27;3.00;;;;;;;36.33;30.69;98665.31;6126440;23;20155;-88
2022/08/31 09:20:00;;;;;;;11.38;2.92;;;;;;;36.47;31.98;98663.00;6125460;23;20132;-88
2022/08/31 09:22:29;;;;;;;8.23;3.13;;;;;;;36.69;30.29;98663.75;6125460;23;20132;-88
2022/08/31 09:25:02;;;;;;;3.10;2.00;;;;;;;36.77;30.26;98662.47;6126295;23;20147;-88
2022/08/31 09:27:56;;;;;;;5.32;2.50;;;;;;;37.08;29.64;98653.47;6126785;23;20168;-88
2022/08/31 09:30:52;;;;;;;7.15;2.72;;;;;;;37.16;29.15;98652.16;6102153;23;20567;-89
2022/08/31 09:33:26;;;;;;;8.10;3.60;;;;;;;37.12;30.07;98656.47;6101901;23;20160;-88
2022/08/31 09:36:14;;;;;;;5.95;2.75;;;;;;;36.57;29.76;98646.75;6127403;23;20136;-88
2022/08/31 09:38:45;;;;;;;8.68;2.90;;;;;;;36.67;30.34;98641.34;6100536;23;20156;-88
2022/08/31 09:41:37;;;;;;;6.93;3.10;;;;;;;36.67;29.30;98643.25;6102115;23;20203;-87
2022/08/31 09:44:34;;;;;;;6.05;3.00;;;;;;;36.93;29.17;98643.19;6126200;23;20128;-89
2022/08/31 09:47:06;;;;;;;6.93;2.70;;;;;;;37.16;28.58;98633.00;6127057;23;20198;-87
2022/08/31 09:49:37;;;;;;;6.45;2.58;;;;;;;37.26;29.11;98641.28;6100713;23;20176;-87
2022/08/31 09:55:18;;;;;;;12.13;3.63;;;;;;;37.84;27.15;98632.78;6126676;23;20154;-87
2022/08/31 09:58:03;;;;;;;6.90;2.08;;;;;;;37.90;26.42;98631.75;6126603;23;20235;-89
2022/08/31 10:00:41;;;;;;;7.07;2.65;;;;;;;37.85;26.33;98631.72;6126588;23;20423;-88
2022/08/31 10:03:27;;;;;;;6.07;2.17;;;;;;;37.76;27.04;98627.88;6100990;23;20235;-87
2022/08/31 10:05:55;;;;;;;5.05;2.67;;;;;;;37.80;25.90;98631.72;6125722;23;20468;-88
2022/08/31 10:08:55;;;;;;;8.32;2.70;;;;;;;37.80;26.94;98628.13;6126147;23;20663;-88
2022/08/31 10:11:23;;;;;;;7.05;2.40;;;;;;;37.99;25.70;98624.69;6125777;23;20158;-88
2022/08/31 10:14:06;;;;;;;8.75;2.42;;;;;;;38.03;26.07;98620.31;6126824;23;20152;-87
2022/08/31 10:16:46;;;;;;;6.25;2.00;;;;;;;37.98;26.52;98608.53;6127134;23;20136;-88
2022/08/31 10:19:19;;;;;;;14.30;3.45;;;;;;;37.91;25.38;98614.25;6102660;23;20143;-88
2022/08/31 10:21:58;;;;;;;5.03;1.95;;;;;;;38.25;24.90;98613.78;6102490;23;20144;-88
2022/08/31 10:24:47;;;;;;;4.45;1.88;;;;;;;38.33;24.57;98607.78;6129100;23;20144;-89
2022/08/31 10:27:30;;;;;;;4.95;1.70;;;;;;;38.31;24.58;98599.88;6127778;23;20136;-88
2022/08/31 10:30:01;;;;;;;7.45;2.40;;;;;;;38.30;24.61;98594.63;6128555;23;20592;-88
2022/08/31 10:33:20;;;;;;;5.00;2.13;;;;;;;38.57;24.72;98592.47;6128626;23;20234;-89
2022/08/31 10:35:56;;;;;;;4.07;1.90;;;;;;;38.57;24.60;98592.47;6011125;23;20538;-89
2022/08/31 10:38:41;;;;;;;5.07;2.15;;;;;;;38.67;24.78;98592.47;6011652;23;20146;-88
2022/08/31 10:41:13;;;;;;;5.88;2.08;;;;;;;38.82;24.72;98583.44;6064382;23;20160;-89
2022/08/31 10:44:00;;;;;;;5.60;2.13;;;;;;;38.61;24.78;98577.13;6127903;23;20148;-88
2022/08/31 10:46:29;;;;;;;4.97;2.50;;;;;;;38.04;25.59;98571.88;6128615;23;20140;-87
2022/08/31 10:48:59;;;;;;;5.78;2.10;;;;;;;37.91;25.46;98575.13;6127745;23;20176;-88
2022/08/31 10:51:39;;;;;;;6.85;2.25;;;;;;;38.00;25.61;98566.09;6127780;23;20152;-88
2022/08/31 10:54:28;;;;;;;5.50;2.40;;;;;;;37.92;24.85;98552.94;6127660;23;20554;-89
2022/08/31 10:57:15;;;;;;;7.60;2.90;;;;;;;37.51;25.20;98552.00;6128440;23;20567;-87
2022/08/31 11:00:40;;;;;;;7.03;2.08;;;;;;;37.83;25.75;98543.59;6128109;23;20133;-87
2022/08/31 11:02:54;;;;;;;7.45;2.03;;;;;;;38.40;25.25;98540.69;6127476;23;20164;-88
2022/08/31 11:05:29;;;;;;;6.30;1.95;;;;;;;38.35;24.78;98540.69;6128075;23;20159;-88
2022/08/31 11:08:25;;;;;;;8.60;2.30;;;;;;;38.01;24.88;98556.81;6102099;23;20164;-87
2022/08/31 11:10:54;;;;;;;5.30;1.83;;;;;;;38.41;25.03;98544.25;6102032;23;20176;-87
2022/08/31 11:13:46;;;;;;;5.25;1.63;;;;;;;38.75;23.15;98545.34;6128295;23;20158;-87
2022/08/31 11:16:44;;;;;;;11.32;3.00;;;;;;;39.06;23.10;98538.69;6102073;23;20234;-87
2022/08/31 11:19:25;;;;;;;4.78;1.73;;;;;;;38.94;22.56;98543.69;6122291;23;20163;-87
2022/08/31 11:21:56;;;;;;;9.27;3.88;;;;;;;38.98;23.29;98533.78;6127922;23;20147;-89
2022/08/31 11:24:51;;;;;;;5.22;2.15;;;;;;;39.00;24.03;98538.97;6101941;23;20155;-87
2022/08/31 11:27:24;;;;;;;10.60;3.25;;;;;;;38.79;24.39;98538.22;6127815;23;20152;-87
2022/08/31 11:29:55;;;;;;;4.65;2.45;;;;;;;38.47;23.83;98534.97;6127731;23;20175;-88
2022/08/31 11:32:23;;;;;;;7.30;2.30;;;;;;;38.17;24.51;98534.91;6127847;23;20133;-87
2022/08/31 11:34:57;;;;;;;4.95;2.30;;;;;;;38.28;25.35;98533.81;6127409;23;20174;-88
2022/08/31 11:37:49;;;;;;;6.18;2.53;;;;;;;38.41;24.76;98527.84;6128174;23;20136;-87
2022/08/31 11:40:40;;;;;;;8.57;2.35;;;;;;;38.35;24.49;98531.66;6127745;23;20539;-89
2022/08/31 11:43:34;;;;;;;9.20;2.40;;;;;;;38.75;25.24;98517.97;6127206;23;20156;-87
2022/08/31 11:46:24;;;;;;;5.85;1.77;;;;;;;39.00;25.04;98508.81;6127148;23;20246;-87
2022/08/31 11:48:52;;;;;;;11.23;4.20;;;;;;;39.09;24.98;98505.25;6127150;23;20235;-87
2022/08/31 11:51:36;;;;;;;7.25;2.65;;;;;;;39.28;23.66;98508.22;6125867;23;20148;-88
2022/08/31 11:54:04;;;;;;;5.68;2.13;;;;;;;38.97;24.28;98510.19;6101534;23;20607;-87
2022/08/31 11:56:43;;;;;;;8.23;2.42;;;;;;;39.08;23.70;98500.84;6127245;23;20152;-87
2022/08/31 11:59:30;;;;;;;6.43;2.38;;;;;;;38.13;24.49;98505.34;6101733;23;20516;-87